Time;durP1;ratioP1;P1;durP2;ratioP2;P2;SDS_P1;SDS_P2;PMS_P1;PMS_P2;Temp;Humidity;BMP_temperature;BMP_pressure;BME280_temperature;BME280_humidity;BME280_pressure;Samples;Min_cycle;Max_cycle;Signal;HPM_P1;HPM_P2
2022/04/21 00:01:04;;;;;;;;;;;23.70;35.30;;;;;;1546704;76;1129;-64
2022/04/21 00:03:06;;;;;;;;;;;23.70;35.20;;;;;;1544987;76;1947;-64
2022/04/21 00:05:08;;;;;;;;;;;23.60;35.20;;;;;;1547794;76;655;-67
2022/04/21 00:07:10;;;;;;;;;;;23.60;35.20;;;;;;1547575;76;708;-64
2022/04/21 00:09:12;;;;;;;;;;;23.60;35.30;;;;;;1551293;76;646;-64
2022/04/21 00:11:14;;;;;;;;;;;23.60;35.30;;;;;;1560761;75;1164;-64
2022/04/21 00:13:15;;;;;;;;;;;23.60;35.30;;;;;;1543211;76;651;-67
2022/04/21 00:15:17;;;;;;;;;;;23.60;35.40;;;;;;1547711;76;757;-66
2022/04/21 00:17:19;;;;;;;;;;;23.60;35.40;;;;;;1544762;76;721;-65
2022/04/21 00:19:21;;;;;;;;;;;23.60;35.50;;;;;;1557100;76;722;-65
2022/04/21 00:23:25;;;;;;;;;;;23.60;35.50;;;;;;1553331;76;1142;-62
2022/04/21 00:23:27;;;;;;;;;;;23.60;35.50;;;;;;1539268;76;1925;-65
2022/04/21 00:25:29;;;;;;;;;;;23.60;35.50;;;;;;1556154;76;723;-65
2022/04/21 00:27:31;;;;;;;;;;;23.60;35.50;;;;;;1550393;76;678;-65
2022/04/21 00:29:33;;;;;;;;;;;23.60;35.50;;;;;;1551941;76;745;-65
2022/04/21 00:31:35;;;;;;;;;;;23.60;35.60;;;;;;1542421;76;1146;-68
2022/04/21 00:33:36;;;;;;;;;;;23.60;35.60;;;;;;1541248;76;651;-63
2022/04/21 00:35:38;;;;;;;;;;;23.60;35.60;;;;;;1541083;76;743;-64
2022/04/21 00:37:49;;;;;;;;;;;23.60;35.60;;;;;;1541460;76;699;-66
2022/04/21 00:39:51;;;;;;;;;;;23.60;35.60;;;;;;1541165;76;734;-66
2022/04/21 00:41:58;;;;;;;;;;;23.60;35.60;;;;;;1542429;76;1143;-65
2022/04/21 00:44:00;;;;;;;;;;;23.60;35.70;;;;;;1544934;76;1900;-64
2022/04/21 00:46:02;;;;;;;;;;;23.60;35.70;;;;;;1554615;76;673;-64
2022/04/21 00:48:05;;;;;;;;;;;23.60;35.70;;;;;;1567074;76;690;-66
2022/04/21 00:50:10;;;;;;;;;;;23.60;35.70;;;;;;1564619;76;610;-63
2022/04/21 00:52:12;;;;;;;;;;;23.60;35.70;;;;;;1541268;76;1181;-67
2022/04/21 00:54:14;;;;;;;;;;;23.60;35.80;;;;;;1541412;76;729;-62
2022/04/21 00:56:16;;;;;;;;;;;23.60;35.80;;;;;;1557461;76;725;-68
2022/04/21 00:58:18;;;;;;;;;;;23.60;35.80;;;;;;1563626;76;829;-65
2022/04/21 01:00:20;;;;;;;;;;;23.60;35.80;;;;;;1566743;76;752;-65
2022/04/21 01:04:42;;;;;;;;;;;23.70;35.90;;;;;;1549349;76;1619;-65
2022/04/21 01:06:44;;;;;;;;;;;23.70;35.90;;;;;;1541403;76;755;-65
2022/04/21 01:08:46;;;;;;;;;;;23.60;35.80;;;;;;1541135;76;672;-65
2022/04/21 01:13:12;;;;;;;;;;;23.70;36.20;;;;;;1489481;78;574;-68
2022/04/21 01:15:14;;;;;;;;;;;23.60;35.90;;;;;;1493226;78;699;-67
2022/04/21 01:17:15;;;;;;;;;;;23.70;36.00;;;;;;1520652;78;665;-67
2022/04/21 01:19:17;;;;;;;;;;;23.70;36.00;;;;;;1520362;77;701;-68
2022/04/21 01:21:19;;;;;;;;;;;23.60;35.90;;;;;;1529763;76;1223;-67
2022/04/21 01:23:21;;;;;;;;;;;23.60;36.00;;;;;;1560159;76;1936;-67
2022/04/21 01:25:23;;;;;;;;;;;23.60;36.00;;;;;;1559853;76;627;-67
2022/04/21 01:27:26;;;;;;;;;;;23.60;36.00;;;;;;1560022;76;643;-68
2022/04/21 01:29:28;;;;;;;;;;;23.60;36.00;;;;;;1559345;76;708;-68
2022/04/21 01:31:30;;;;;;;;;;;23.60;36.00;;;;;;1560047;76;1136;-67
2022/04/21 01:33:32;;;;;;;;;;;23.60;36.00;;;;;;1569332;75;768;-67
2022/04/21 01:35:34;;;;;;;;;;;23.70;36.10;;;;;;1560135;76;650;-67
2022/04/21 01:42:16;;;;;;;;;;;23.70;36.10;;;;;;1568916;75;1619;-66
2022/04/21 01:44:17;;;;;;;;;;;23.70;36.10;;;;;;1553440;76;1962;-66
2022/04/21 01:46:19;;;;;;;;;;;23.70;36.00;;;;;;1560100;76;648;-67
2022/04/21 01:48:21;;;;;;;;;;;23.70;36.10;;;;;;1559949;76;670;-67
2022/04/21 01:50:24;;;;;;;;;;;23.70;36.10;;;;;;1560297;76;636;-67
2022/04/21 01:52:25;;;;;;;;;;;23.70;36.10;;;;;;1559911;76;1136;-66
2022/04/21 01:54:27;;;;;;;;;;;23.70;36.10;;;;;;1560146;76;653;-66
2022/04/21 01:56:29;;;;;;;;;;;23.80;36.20;;;;;;1559872;76;845;-68
2022/04/21 01:58:31;;;;;;;;;;;23.80;36.00;;;;;;1560253;76;705;-67
2022/04/21 02:00:33;;;;;;;;;;;23.90;36.00;;;;;;1560053;76;678;-67
2022/04/21 02:02:35;;;;;;;;;;;23.90;36.00;;;;;;1560075;76;1947;-68
2022/04/21 02:04:37;;;;;;;;;;;23.90;36.00;;;;;;1559526;76;730;-71
2022/04/21 02:06:38;;;;;;;;;;;23.90;35.90;;;;;;1561282;75;690;-67
2022/04/21 02:08:40;;;;;;;;;;;23.90;35.80;;;;;;1542173;75;691;-67
2022/04/21 02:10:42;;;;;;;;;;;23.90;35.90;;;;;;1546524;76;789;-68
2022/04/21 02:12:45;;;;;;;;;;;23.90;35.90;;;;;;1569240;75;1110;-66
2022/04/21 02:14:48;;;;;;;;;;;23.90;35.90;;;;;;1559907;76;734;-68
2022/04/21 02:16:50;;;;;;;;;;;23.90;36.00;;;;;;1555540;76;658;-67
2022/04/21 02:18:52;;;;;;;;;;;23.90;36.10;;;;;;1560434;76;711;-67
2022/04/21 02:20:53;;;;;;;;;;;23.80;36.10;;;;;;1560942;76;709;-68
2022/04/21 02:22:55;;;;;;;;;;;23.80;36.10;;;;;;1545253;76;1963;-68
2022/04/21 02:24:57;;;;;;;;;;;23.80;36.00;;;;;;1564500;75;698;-70
2022/04/21 02:26:59;;;;;;;;;;;23.80;36.00;;;;;;1560287;75;694;-67
2022/04/21 02:29:01;;;;;;;;;;;23.80;36.20;;;;;;1560233;76;814;-67
2022/04/21 02:31:03;;;;;;;;;;;23.80;36.20;;;;;;1559899;76;1153;-69
2022/04/21 02:33:05;;;;;;;;;;;23.80;36.30;;;;;;1559877;76;552;-67
2022/04/21 02:35:07;;;;;;;;;;;23.80;36.40;;;;;;1560021;76;683;-67
2022/04/21 02:37:09;;;;;;;;;;;23.90;36.50;;;;;;1560045;76;677;-69
2022/04/21 02:39:11;;;;;;;;;;;23.80;37.30;;;;;;1560038;76;697;-71
2022/04/21 02:41:13;;;;;;;;;;;23.60;37.50;;;;;;1560806;75;1128;-69
2022/04/21 02:43:15;;;;;;;;;;;23.60;37.60;;;;;;1557327;75;1959;-71
2022/04/21 02:45:16;;;;;;;;;;;23.50;38.00;;;;;;1567834;75;682;-70
2022/04/21 02:47:18;;;;;;;;;;;23.40;38.10;;;;;;1561615;75;686;-69
2022/04/21 02:49:20;;;;;;;;;;;23.50;38.10;;;;;;1562085;75;709;-70
2022/04/21 02:51:22;;;;;;;;;;;23.40;38.00;;;;;;1562774;75;1127;-69
2022/04/21 02:58:04;;;;;;;;;;;23.40;38.10;;;;;;1553576;75;1646;-69
2022/04/21 03:00:07;;;;;;;;;;;23.40;38.20;;;;;;1566216;75;763;-71
2022/04/21 03:02:09;;;;;;;;;;;23.30;38.20;;;;;;1561290;75;1101;-69
2022/04/21 03:04:11;;;;;;;;;;;23.30;38.20;;;;;;1562895;75;1907;-68
2022/04/21 03:06:13;;;;;;;;;;;23.30;38.30;;;;;;1562017;75;870;-70
2022/04/21 03:08:14;;;;;;;;;;;23.40;38.40;;;;;;1554912;75;721;-71
2022/04/21 03:10:16;;;;;;;;;;;23.30;38.40;;;;;;1564255;75;677;-70
2022/04/21 03:12:18;;;;;;;;;;;23.30;38.30;;;;;;1564543;75;1154;-69
2022/04/21 03:14:20;;;;;;;;;;;23.30;38.30;;;;;;1566177;75;801;-69
2022/04/21 03:16:22;;;;;;;;;;;23.30;38.30;;;;;;1551255;75;695;-69
2022/04/21 03:18:24;;;;;;;;;;;23.40;38.20;;;;;;1572849;75;706;-69
2022/04/21 03:25:05;;;;;;;;;;;23.30;38.20;;;;;;1556976;75;734;-72
2022/04/21 03:27:07;;;;;;;;;;;23.40;38.30;;;;;;1564500;75;746;-72
2022/04/21 03:29:09;;;;;;;;;;;23.40;38.30;;;;;;1557543;75;740;-72
2022/04/21 03:31:11;;;;;;;;;;;23.40;38.30;;;;;;1569108;75;1137;-70
2022/04/21 03:33:13;;;;;;;;;;;23.40;38.30;;;;;;1557808;75;904;-71
2022/04/21 03:35:15;;;;;;;;;;;23.50;38.40;;;;;;1562278;75;791;-70
2022/04/21 03:37:18;;;;;;;;;;;23.50;38.40;;;;;;1561109;75;719;-71
2022/04/21 03:39:21;;;;;;;;;;;23.40;38.30;;;;;;1553755;75;681;-70
2022/04/21 03:41:23;;;;;;;;;;;23.40;38.20;;;;;;1557085;75;1219;-72
2022/04/21 03:43:24;;;;;;;;;;;23.40;38.30;;;;;;1562669;75;1931;-70
2022/04/21 03:45:26;;;;;;;;;;;23.50;38.40;;;;;;1573448;75;711;-71
2022/04/21 03:47:28;;;;;;;;;;;23.40;38.20;;;;;;1561441;75;731;-71
2022/04/21 03:49:30;;;;;;;;;;;23.60;38.30;;;;;;1563770;75;679;-72
2022/04/21 03:51:32;;;;;;;;;;;23.50;38.20;;;;;;1555658;75;1161;-71
2022/04/21 03:53:34;;;;;;;;;;;23.50;38.30;;;;;;1564439;75;750;-73
2022/04/21 03:55:36;;;;;;;;;;;23.50;38.20;;;;;;1567558;75;710;-71
2022/04/21 03:57:38;;;;;;;;;;;23.50;38.20;;;;;;1565923;75;731;-71
2022/04/21 03:59:39;;;;;;;;;;;23.50;38.10;;;;;;1560760;75;726;-71
2022/04/21 04:01:41;;;;;;;;;;;23.60;38.10;;;;;;1562901;75;1196;-71
2022/04/21 04:03:43;;;;;;;;;;;23.50;38.10;;;;;;1558023;75;1930;-70
2022/04/21 04:05:45;;;;;;;;;;;23.60;38.10;;;;;;1556389;75;733;-69
2022/04/21 04:12:31;;;;;;;;;;;23.50;38.10;;;;;;1562883;75;1647;-68
2022/04/21 04:14:32;;;;;;;;;;;23.50;38.00;;;;;;1566074;74;692;-68
2022/04/21 04:16:35;;;;;;;;;;;23.60;38.10;;;;;;1563253;75;738;-68
2022/04/21 04:18:37;;;;;;;;;;;23.60;38.10;;;;;;1568116;75;685;-68
2022/04/21 04:20:39;;;;;;;;;;;23.60;38.00;;;;;;1563017;75;683;-68
2022/04/21 04:22:42;;;;;;;;;;;23.60;37.90;;;;;;1566359;75;1144;-68
2022/04/21 04:24:46;;;;;;;;;;;23.60;37.90;;;;;;1553296;75;1909;-68
2022/04/21 04:26:48;;;;;;;;;;;23.50;38.00;;;;;;1567730;75;803;-69
2022/04/21 04:28:50;;;;;;;;;;;23.50;38.10;;;;;;1561645;75;641;-70
2022/04/21 04:30:52;;;;;;;;;;;23.50;38.10;;;;;;1567394;75;778;-68
2022/04/21 04:32:54;;;;;;;;;;;23.60;38.10;;;;;;1560126;75;1078;-70
2022/04/21 04:34:56;;;;;;;;;;;23.60;38.00;;;;;;1557389;75;713;-67
2022/04/21 04:36:58;;;;;;;;;;;23.60;38.10;;;;;;1557411;75;743;-68
2022/04/21 04:38:59;;;;;;;;;;;23.50;38.20;;;;;;1557421;76;663;-67
2022/04/21 04:42:16;;;;;;;;;;;23.60;38.20;;;;;;1560345;76;1153;-68
2022/04/21 04:43:05;;;;;;;;;;;23.50;38.10;;;;;;1556050;75;1235;-67
2022/04/21 04:47:27;;;;;;;;;;;23.50;38.10;;;;;;1549875;76;752;-71
2022/04/21 04:49:29;;;;;;;;;;;23.60;38.20;;;;;;1560212;76;662;-71
2022/04/21 04:51:31;;;;;;;;;;;23.60;38.30;;;;;;1560072;76;1143;-71
2022/04/21 04:53:33;;;;;;;;;;;23.50;38.30;;;;;;1560220;76;740;-70
2022/04/21 04:55:35;;;;;;;;;;;23.60;38.30;;;;;;1565068;75;669;-69
2022/04/21 04:57:38;;;;;;;;;;;23.50;38.40;;;;;;1558059;75;900;-67
2022/04/21 04:59:40;;;;;;;;;;;23.60;38.50;;;;;;1551927;76;736;-66
2022/04/21 05:01:42;;;;;;;;;;;23.60;38.40;;;;;;1554583;76;1154;-67
2022/04/21 05:03:44;;;;;;;;;;;23.60;38.50;;;;;;1555422;75;1972;-66
2022/04/21 05:05:46;;;;;;;;;;;23.60;38.50;;;;;;1561930;75;626;-66
2022/04/21 05:07:48;;;;;;;;;;;23.60;38.50;;;;;;1550745;75;676;-65
2022/04/21 05:09:50;;;;;;;;;;;23.60;38.60;;;;;;1547778;76;702;-66
2022/04/21 05:11:52;;;;;;;;;;;23.60;38.70;;;;;;1559727;76;1110;-65
2022/04/21 05:13:55;;;;;;;;;;;23.60;38.80;;;;;;1566138;75;815;-65
2022/04/21 05:15:57;;;;;;;;;;;23.60;38.80;;;;;;1559530;76;612;-65
2022/04/21 05:17:59;;;;;;;;;;;23.60;38.70;;;;;;1566005;75;685;-67
2022/04/21 05:20:01;;;;;;;;;;;23.60;38.70;;;;;;1566064;75;641;-66
2022/04/21 05:22:03;;;;;;;;;;;23.60;38.70;;;;;;1562785;75;1172;-68
2022/04/21 05:24:06;;;;;;;;;;;23.60;38.70;;;;;;1565673;75;1929;-66
2022/04/21 05:26:08;;;;;;;;;;;23.60;38.70;;;;;;1567938;75;738;-67
2022/04/21 05:28:10;;;;;;;;;;;23.60;38.80;;;;;;1573168;75;750;-65
2022/04/21 05:32:35;;;;;;;;;;;23.60;38.80;;;;;;1567575;75;1640;-65
2022/04/21 05:34:37;;;;;;;;;;;23.60;38.90;;;;;;1565637;75;1171;-66
2022/04/21 05:36:39;;;;;;;;;;;23.70;38.90;;;;;;1570063;75;695;-65
2022/04/21 05:38:41;;;;;;;;;;;23.60;38.80;;;;;;1575712;75;651;-65
2022/04/21 05:40:43;;;;;;;;;;;23.70;39.00;;;;;;1559729;75;708;-64
2022/04/21 05:42:46;;;;;;;;;;;23.60;38.90;;;;;;1564597;75;1114;-66
2022/04/21 05:44:48;;;;;;;;;;;23.60;38.90;;;;;;1562010;75;1899;-67
2022/04/21 05:46:50;;;;;;;;;;;23.60;39.00;;;;;;1551224;75;694;-65
2022/04/21 05:48:52;;;;;;;;;;;23.60;38.90;;;;;;1562099;75;716;-66
2022/04/21 05:50:54;;;;;;;;;;;23.60;38.90;;;;;;1555510;75;720;-66
2022/04/21 05:52:57;;;;;;;;;;;23.60;38.90;;;;;;1561135;75;1182;-65
2022/04/21 05:54:59;;;;;;;;;;;23.60;38.90;;;;;;1567212;75;733;-66
2022/04/21 05:57:02;;;;;;;;;;;23.70;39.10;;;;;;1562838;75;722;-65
2022/04/21 05:59:04;;;;;;;;;;;23.70;39.10;;;;;;1555757;76;768;-64
2022/04/21 06:01:07;;;;;;;;;;;23.60;38.90;;;;;;1557605;76;1097;-65
2022/04/21 06:03:11;;;;;;;;;;;23.60;38.90;;;;;;1559994;76;697;-65
2022/04/21 06:05:12;;;;;;;;;;;23.70;39.00;;;;;;1559694;76;1914;-64
2022/04/21 06:07:14;;;;;;;;;;;23.60;38.90;;;;;;1560145;76;683;-65
2022/04/21 06:09:16;;;;;;;;;;;23.70;39.00;;;;;;1559438;75;762;-65
2022/04/21 06:11:18;;;;;;;;;;;23.60;38.90;;;;;;1554567;75;1102;-64
2022/04/21 06:13:21;;;;;;;;;;;23.60;38.90;;;;;;1561392;75;705;-68
2022/04/21 06:15:22;;;;;;;;;;;23.60;39.10;;;;;;1572600;75;761;-66
2022/04/21 06:17:25;;;;;;;;;;;23.60;39.10;;;;;;1571279;75;687;-61
2022/04/21 06:19:26;;;;;;;;;;;23.60;39.00;;;;;;1567938;75;685;-64
2022/04/21 06:21:28;;;;;;;;;;;23.70;38.90;;;;;;1560823;75;1184;-61
2022/04/21 06:23:33;;;;;;;;;;;23.70;38.70;;;;;;1555430;75;667;-63
2022/04/21 06:25:36;;;;;;;;;;;23.70;38.60;;;;;;1564194;75;1943;-65
2022/04/21 06:27:37;;;;;;;;;;;23.70;38.50;;;;;;1551517;75;745;-62
2022/04/21 06:29:39;;;;;;;;;;;23.70;38.40;;;;;;1557322;75;822;-65
2022/04/21 06:31:41;;;;;;;;;;;23.80;38.20;;;;;;1560684;75;1189;-60
2022/04/21 06:33:43;;;;;;;;;;;23.90;38.10;;;;;;1555694;75;716;-61
2022/04/21 06:35:45;;;;;;;;;;;23.80;37.90;;;;;;1560496;75;742;-62
2022/04/21 06:37:47;;;;;;;;;;;23.90;37.90;;;;;;1558569;75;739;-62
2022/04/21 06:39:49;;;;;;;;;;;23.70;37.70;;;;;;1556447;75;681;-63
2022/04/21 06:41:51;;;;;;;;;;;23.70;37.70;;;;;;1547264;75;1151;-65
2022/04/21 06:48:33;;;;;;;;;;;23.70;37.50;;;;;;1555057;75;1652;-66
2022/04/21 06:50:36;;;;;;;;;;;23.60;37.30;;;;;;1555015;75;843;-69
2022/04/21 06:52:38;;;;;;;;;;;23.70;37.60;;;;;;1555265;75;1454;-70
2022/04/21 06:54:40;;;;;;;;;;;23.90;37.50;;;;;;1566091;75;889;-68
2022/04/21 06:56:48;;;;;;;;;;;24.00;36.80;;;;;;1560466;75;697;-69
2022/04/21 06:58:46;;;;;;;;;;;24.10;36.50;;;;;;1564916;75;1577;-70
2022/04/21 07:00:48;;;;;;;;;;;24.20;35.90;;;;;;1569193;75;749;-70
2022/04/21 07:02:53;;;;;;;;;;;24.30;36.00;;;;;;1558890;75;1107;-70
2022/04/21 07:04:57;;;;;;;;;;;24.30;36.10;;;;;;1559369;75;1929;-68
2022/04/21 07:06:59;;;;;;;;;;;24.50;36.00;;;;;;1556682;75;1870;-70
2022/04/21 07:09:01;;;;;;;;;;;24.50;35.60;;;;;;1560603;75;687;-70
2022/04/21 07:11:03;;;;;;;;;;;24.60;35.40;;;;;;1560412;75;1148;-72
2022/04/21 07:13:10;;;;;;;;;;;24.70;35.30;;;;;;1550002;75;2045;-71
2022/04/21 07:15:12;;;;;;;;;;;24.70;35.00;;;;;;1550187;76;863;-69
2022/04/21 07:17:14;;;;;;;;;;;24.80;34.80;;;;;;1554490;76;689;-70
2022/04/21 07:19:16;;;;;;;;;;;24.80;34.70;;;;;;1555310;76;699;-67
2022/04/21 07:21:18;;;;;;;;;;;24.90;34.50;;;;;;1556865;76;755;-67
2022/04/21 07:23:20;;;;;;;;;;;24.80;33.80;;;;;;1577885;75;1206;-67
2022/04/21 07:25:22;;;;;;;;;;;24.80;33.60;;;;;;1578405;75;1933;-68
2022/04/21 07:27:24;;;;;;;;;;;24.80;33.70;;;;;;1576721;75;771;-69
2022/04/21 07:29:26;;;;;;;;;;;24.90;33.90;;;;;;1578346;75;674;-68
2022/04/21 07:31:28;;;;;;;;;;;24.90;33.80;;;;;;1578628;75;681;-70
2022/04/21 07:33:30;;;;;;;;;;;25.00;33.50;;;;;;1579201;75;661;-67
2022/04/21 07:35:33;;;;;;;;;;;25.00;33.50;;;;;;1566001;75;702;-67
2022/04/21 07:37:37;;;;;;;;;;;25.00;33.30;;;;;;1579264;75;742;-67
2022/04/21 07:39:40;;;;;;;;;;;25.00;33.40;;;;;;1570563;75;777;-68
2022/04/21 07:41:42;;;;;;;;;;;25.00;32.70;;;;;;1580710;75;1117;-67
2022/04/21 07:43:44;;;;;;;;;;;24.90;32.20;;;;;;1576275;75;656;-67
2022/04/21 07:45:46;;;;;;;;;;;24.90;32.50;;;;;;1577175;75;1922;-67
2022/04/21 07:47:48;;;;;;;;;;;24.80;33.20;;;;;;1575677;75;775;-66
2022/04/21 07:49:50;;;;;;;;;;;25.00;32.90;;;;;;1581085;75;661;-64
2022/04/21 07:53:12;;;;;;;;;;;25.00;32.90;;;;;;1580158;75;1139;-68
2022/04/21 07:53:55;;;;;;;;;;;25.10;32.80;;;;;;1576143;75;1417;-67
2022/04/21 07:55:57;;;;;;;;;;;25.10;32.00;;;;;;1580029;75;701;-65
2022/04/21 07:57:59;;;;;;;;;;;25.10;32.50;;;;;;1580488;74;674;-67
2022/04/21 08:00:01;;;;;;;;;;;25.10;32.40;;;;;;1576159;75;632;-67
2022/04/21 08:02:04;;;;;;;;;;;25.10;32.30;;;;;;1576842;75;1171;-68
2022/04/21 08:04:06;;;;;;;;;;;25.10;32.30;;;;;;1576753;75;757;-68
2022/04/21 08:06:08;;;;;;;;;;;25.10;32.20;;;;;;1580121;75;1941;-68
2022/04/21 08:08:11;;;;;;;;;;;25.10;32.20;;;;;;1573240;75;674;-68
2022/04/21 08:10:13;;;;;;;;;;;25.20;31.70;;;;;;1572393;74;675;-69
2022/04/21 08:12:15;;;;;;;;;;;25.10;31.80;;;;;;1579916;75;1124;-69
2022/04/21 08:14:17;;;;;;;;;;;25.10;31.80;;;;;;1579999;75;746;-68
2022/04/21 08:16:19;;;;;;;;;;;25.00;31.60;;;;;;1561525;75;668;-69
2022/04/21 08:18:21;;;;;;;;;;;25.10;31.80;;;;;;1576856;75;697;-68
2022/04/21 08:20:23;;;;;;;;;;;25.00;31.50;;;;;;1580779;75;711;-69
2022/04/21 08:22:25;;;;;;;;;;;25.10;31.50;;;;;;1578677;75;1141;-68
2022/04/21 08:33:46;;;;;;;;;;;25.00;31.30;;;;;;1579450;75;1637;-64
2022/04/21 08:35:49;;;;;;;;;;;24.90;30.90;;;;;;1568938;75;803;-67
2022/04/21 08:37:51;;;;;;;;;;;25.00;30.90;;;;;;1573300;75;677;-68
2022/04/21 08:39:53;;;;;;;;;;;24.90;30.90;;;;;;1569050;75;680;-67
2022/04/21 08:41:57;;;;;;;;;;;25.00;31.00;;;;;;1576681;75;1112;-67
2022/04/21 08:44:00;;;;;;;;;;;25.00;30.90;;;;;;1572524;75;694;-70
2022/04/21 08:46:03;;;;;;;;;;;25.00;30.50;;;;;;1569700;74;1930;-67
2022/04/21 08:48:05;;;;;;;;;;;25.00;30.50;;;;;;1566962;75;733;-67
2022/04/21 08:50:08;;;;;;;;;;;25.00;30.50;;;;;;1569213;75;681;-67
2022/04/21 08:52:10;;;;;;;;;;;25.00;30.40;;;;;;1572565;75;1182;-67
2022/04/21 08:54:11;;;;;;;;;;;24.90;30.50;;;;;;1552928;76;697;-66
2022/04/21 08:56:13;;;;;;;;;;;24.90;30.20;;;;;;1580345;75;696;-67
2022/04/21 08:58:15;;;;;;;;;;;24.90;30.20;;;;;;1580880;75;693;-67
2022/04/21 09:00:18;;;;;;;;;;;25.00;30.30;;;;;;1580160;75;703;-67
2022/04/21 09:02:20;;;;;;;;;;;25.00;30.30;;;;;;1580180;75;1133;-66
2022/04/21 09:04:21;;;;;;;;;;;24.90;30.20;;;;;;1579367;75;702;-68
2022/04/21 09:06:24;;;;;;;;;;;25.00;29.80;;;;;;1577007;75;1951;-68
2022/04/21 09:08:31;;;;;;;;;;;24.80;28.10;;;;;;1572123;75;730;-68
2022/04/21 09:10:32;;;;;;;;;;;24.80;28.90;;;;;;1567179;75;1565;-69
2022/04/21 09:12:34;;;;;;;;;;;24.80;29.30;;;;;;1577171;75;1894;-67
2022/04/21 09:14:36;;;;;;;;;;;24.80;29.40;;;;;;1580639;75;741;-67
2022/04/21 09:16:38;;;;;;;;;;;24.80;29.40;;;;;;1567332;75;663;-68
2022/04/21 09:18:41;;;;;;;;;;;24.80;29.50;;;;;;1581015;75;516;-67
2022/04/21 09:20:45;;;;;;;;;;;24.80;29.40;;;;;;1580411;75;1649;-68
2022/04/21 09:22:49;;;;;;;;;;;24.70;28.90;;;;;;1580049;75;1168;-66
2022/04/21 09:24:54;;;;;;;;;;;24.70;29.20;;;;;;1579997;75;1786;-69
2022/04/21 09:26:56;;;;;;;;;;;24.70;29.40;;;;;;1577761;75;1960;-67
2022/04/21 09:28:58;;;;;;;;;;;24.80;29.20;;;;;;1580848;75;527;-68
2022/04/21 09:31:00;;;;;;;;;;;24.60;29.20;;;;;;1578040;75;676;-68
2022/04/21 09:33:02;;;;;;;;;;;24.60;29.40;;;;;;1569441;75;1151;-68
2022/04/21 09:35:05;;;;;;;;;;;24.70;29.60;;;;;;1572933;75;682;-67
2022/04/21 09:37:06;;;;;;;;;;;24.60;29.20;;;;;;1579603;75;640;-67
2022/04/21 09:39:09;;;;;;;;;;;24.70;29.40;;;;;;1580598;75;713;-67
2022/04/21 09:41:11;;;;;;;;;;;24.60;29.10;;;;;;1579685;75;1158;-67
2022/04/21 09:43:13;;;;;;;;;;;24.70;29.20;;;;;;1580643;75;1105;-67
2022/04/21 09:47:35;;;;;;;;;;;24.70;28.50;;;;;;1575068;74;1647;-68
2022/04/21 09:49:38;;;;;;;;;;;24.60;28.10;;;;;;1581021;75;724;-68
2022/04/21 09:51:40;;;;;;;;;;;24.60;27.60;;;;;;1580737;75;1143;-70
2022/04/21 09:53:47;;;;;;;;;;;24.50;27.80;;;;;;1580580;75;735;-67
2022/04/21 09:55:49;;;;;;;;;;;24.50;27.60;;;;;;1572877;75;639;-69
2022/04/21 09:57:52;;;;;;;;;;;24.30;27.00;;;;;;1577942;75;688;-68
2022/04/21 09:59:54;;;;;;;;;;;24.40;27.10;;;;;;1581003;75;671;-68
2022/04/21 10:01:56;;;;;;;;;;;24.20;25.70;;;;;;1580981;75;1141;-68
2022/04/21 10:03:57;;;;;;;;;;;24.20;25.60;;;;;;1580516;75;793;-68
2022/04/21 10:05:59;;;;;;;;;;;24.10;25.00;;;;;;1576349;75;1929;-70
2022/04/21 10:08:02;;;;;;;;;;;23.90;25.30;;;;;;1569943;75;708;-68
2022/04/21 10:10:04;;;;;;;;;;;23.90;26.00;;;;;;1580781;75;741;-70
2022/04/21 10:12:06;;;;;;;;;;;23.80;26.10;;;;;;1580890;75;1144;-68
2022/04/21 10:14:15;;;;;;;;;;;23.70;25.20;;;;;;1579889;75;686;-67
2022/04/21 10:16:16;;;;;;;;;;;23.70;25.90;;;;;;1567198;75;1497;-69
2022/04/21 10:18:16;;;;;;;;;;;23.70;26.50;;;;;;1569672;75;1682;-67
2022/04/21 10:20:20;;;;;;;;;;;23.80;26.70;;;;;;1568993;75;710;-66
2022/04/21 10:22:22;;;;;;;;;;;23.90;27.10;;;;;;1572562;75;1175;-69
2022/04/21 10:24:24;;;;;;;;;;;23.80;26.90;;;;;;1580199;75;721;-67
2022/04/21 10:26:36;;;;;;;;;;;23.80;27.10;;;;;;1579999;75;1918;-67
2022/04/21 10:28:41;;;;;;;;;;;23.90;27.20;;;;;;1580699;75;721;-66
2022/04/21 10:30:45;;;;;;;;;;;23.90;26.50;;;;;;1580729;75;749;-67
2022/04/21 10:32:54;;;;;;;;;;;23.90;26.70;;;;;;1580520;75;1668;-67
2022/04/21 10:34:57;;;;;;;;;;;23.80;25.80;;;;;;1579556;75;1832;-67
2022/04/21 10:37:04;;;;;;;;;;;23.70;25.30;;;;;;1580775;75;744;-66
2022/04/21 10:39:19;;;;;;;;;;;23.70;25.70;;;;;;1580551;75;1799;-66
2022/04/21 10:41:23;;;;;;;;;;;23.60;25.60;;;;;;1580905;75;687;-67
2022/04/21 10:43:25;;;;;;;;;;;23.60;25.80;;;;;;1579759;75;1934;-68
2022/04/21 10:45:32;;;;;;;;;;;23.60;26.00;;;;;;1579726;75;684;-66
2022/04/21 10:47:36;;;;;;;;;;;23.50;25.90;;;;;;1569345;75;694;-67
2022/04/21 10:49:59;;;;;;;;;;;23.40;26.10;;;;;;1580654;75;651;-66
2022/04/21 10:58:52;;;;;;;;;;;23.20;26.00;;;;;;1576911;75;1665;-67
2022/04/21 11:01:07;;;;;;;;;;;23.20;25.80;;;;;;1580713;75;785;-66
2022/04/21 11:03:10;;;;;;;;;;;23.20;26.00;;;;;;1570555;75;1120;-67
2022/04/21 11:05:31;;;;;;;;;;;23.20;25.80;;;;;;1578288;75;668;-67
2022/04/21 11:07:29;;;;;;;;;;;23.20;26.20;;;;;;1575996;75;1910;-66
2022/04/21 11:09:35;;;;;;;;;;;23.20;25.00;;;;;;1579402;75;1140;-66
2022/04/21 11:11:44;;;;;;;;;;;23.20;25.20;;;;;;1580980;75;1120;-67
2022/04/21 11:13:50;;;;;;;;;;;23.10;25.70;;;;;;1577881;75;693;-67
2022/04/21 11:15:58;;;;;;;;;;;23.10;26.20;;;;;;1569300;75;753;-66
2022/04/21 11:18:01;;;;;;;;;;;23.10;26.50;;;;;;1566179;74;1609;-66
2022/04/21 11:20:03;;;;;;;;;;;23.00;24.20;;;;;;1569021;75;1787;-68
2022/04/21 11:22:06;;;;;;;;;;;22.90;25.20;;;;;;1577116;75;1073;-66
2022/04/21 11:24:07;;;;;;;;;;;22.80;25.90;;;;;;1580741;75;764;-67
2022/04/21 11:26:09;;;;;;;;;;;22.90;25.90;;;;;;1576311;75;1946;-66
2022/04/21 11:28:12;;;;;;;;;;;22.80;25.10;;;;;;1580091;75;697;-71
2022/04/21 11:30:14;;;;;;;;;;;22.90;25.50;;;;;;1579821;75;688;-66
2022/04/21 11:32:16;;;;;;;;;;;22.90;25.80;;;;;;1574414;75;1105;-66
2022/04/21 11:34:22;;;;;;;;;;;22.80;25.20;;;;;;1579167;75;691;-66
2022/04/21 11:36:26;;;;;;;;;;;22.90;25.70;;;;;;1578226;75;937;-68
2022/04/21 11:38:28;;;;;;;;;;;22.90;25.90;;;;;;1577332;75;1166;-66
2022/04/21 11:40:36;;;;;;;;;;;22.90;25.90;;;;;;1580241;75;635;-66
2022/04/21 11:42:39;;;;;;;;;;;22.90;25.90;;;;;;1580055;75;1152;-66
2022/04/21 11:44:40;;;;;;;;;;;22.70;24.30;;;;;;1579004;75;670;-65
2022/04/21 11:46:42;;;;;;;;;;;22.60;25.20;;;;;;1562808;74;1916;-66
2022/04/21 11:48:44;;;;;;;;;;;22.70;25.60;;;;;;1580251;75;692;-67
2022/04/21 11:50:46;;;;;;;;;;;22.70;25.50;;;;;;1580839;75;736;-66
2022/04/21 11:52:52;;;;;;;;;;;22.60;25.20;;;;;;1580764;75;1100;-65
2022/04/21 11:55:01;;;;;;;;;;;22.60;25.30;;;;;;1578803;75;1616;-66
2022/04/21 11:57:03;;;;;;;;;;;22.60;25.60;;;;;;1576986;75;677;-67
2022/04/21 11:59:08;;;;;;;;;;;22.70;25.80;;;;;;1580671;75;712;-65
2022/04/21 12:08:12;;;;;;;;;;;22.60;25.30;;;;;;1575636;75;1608;-65
2022/04/21 12:10:14;;;;;;;;;;;22.50;25.70;;;;;;1573861;74;755;-65
2022/04/21 12:12:18;;;;;;;;;;;22.60;26.10;;;;;;1568958;75;1160;-66
2022/04/21 12:14:20;;;;;;;;;;;22.60;26.30;;;;;;1578463;75;1768;-66
2022/04/21 12:16:41;;;;;;;;;;;22.60;26.50;;;;;;1574675;75;832;-66
2022/04/21 12:18:48;;;;;;;;;;;22.50;25.20;;;;;;1567462;75;691;-65
2022/04/21 12:20:55;;;;;;;;;;;22.50;26.60;;;;;;1575415;75;1522;-68
2022/04/21 12:22:57;;;;;;;;;;;22.40;29.10;;;;;;1573960;75;1209;-66
2022/04/21 12:24:59;;;;;;;;;;;22.30;28.20;;;;;;1572877;75;682;-66
2022/04/21 12:27:02;;;;;;;;;;;22.40;28.20;;;;;;1571644;75;1954;-67
2022/04/21 12:29:08;;;;;;;;;;;22.50;28.60;;;;;;1570567;75;672;-66
2022/04/21 12:31:10;;;;;;;;;;;22.40;29.00;;;;;;1562646;75;692;-66
2022/04/21 12:33:12;;;;;;;;;;;22.40;28.90;;;;;;1562721;75;1132;-65
2022/04/21 12:35:14;;;;;;;;;;;22.40;30.20;;;;;;1575400;75;706;-66
2022/04/21 12:37:17;;;;;;;;;;;22.30;29.30;;;;;;1580696;75;661;-66
2022/04/21 12:39:19;;;;;;;;;;;22.30;29.20;;;;;;1579648;75;1174;-67
2022/04/21 12:41:22;;;;;;;;;;;22.30;29.50;;;;;;1580735;75;730;-67
2022/04/21 12:43:24;;;;;;;;;;;22.40;29.40;;;;;;1580742;75;1120;-67
2022/04/21 12:45:25;;;;;;;;;;;22.30;28.90;;;;;;1570419;75;683;-67
2022/04/21 12:47:27;;;;;;;;;;;22.40;28.40;;;;;;1575410;75;1959;-67
2022/04/21 12:49:47;;;;;;;;;;;22.20;27.50;;;;;;1580893;75;730;-67
2022/04/21 12:51:49;;;;;;;;;;;22.20;27.90;;;;;;1577885;75;1130;-64
2022/04/21 12:53:58;;;;;;;;;;;22.20;28.70;;;;;;1580666;75;707;-66
2022/04/21 12:56:10;;;;;;;;;;;22.20;28.50;;;;;;1580111;75;842;-65
2022/04/21 12:58:13;;;;;;;;;;;22.20;28.10;;;;;;1573022;75;1155;-67
2022/04/21 13:00:15;;;;;;;;;;;22.20;27.80;;;;;;1573810;75;765;-65
2022/04/21 13:02:18;;;;;;;;;;;22.20;28.30;;;;;;1576933;75;1164;-65
2022/04/21 13:04:20;;;;;;;;;;;22.20;28.30;;;;;;1568501;75;754;-66
2022/04/21 13:06:28;;;;;;;;;;;22.10;27.90;;;;;;1580804;75;1922;-65
2022/04/21 13:08:30;;;;;;;;;;;22.10;27.90;;;;;;1574417;75;697;-65
2022/04/21 13:10:32;;;;;;;;;;;22.20;27.90;;;;;;1576908;75;670;-65